Latest Weather Observations for Middle Point

IDD60801

Issued at 9:01 pm CST Sunday 19 February 2017 (issued every 30 minutes, with the page automatically refreshed every 10 minutes)

About weather observations | Map of weather stations | Latest weather observations for NT | Other Formats
Station Details ID: 014041 Name: MIDDLE POINT Lat: -12.61 Lon: 131.30 Height: 14.1 m
Data from the previous 72 hours. | See also: Recent months at Middle Point
Date/Time
CST
Temp
°C
App
Temp
°C
Dew
Point
°C
Rel
Hum
%
Delta-T
°C
Wind Press
QNH
hPa
Press
MSL
hPa
Rain since
9am
mm
Dir  Spd
km/h
Gust
km/h
Spd
kts
Gust
kts
19/09:00pm 25.5 30.8 24.3 93 0.8 W 4 4 2 2 - 1007.2 0.8
19/08:30pm 25.4 30.3 24.4 94 0.7 W 6 7 3 4 1006.8 1006.7 0.8
19/08:00pm 25.4 30.1 24.0 92 1.0 NW 6 7 3 4 1006.6 1006.5 0.8
19/07:30pm 25.6 30.3 24.0 91 1.1 W 6 7 3 4 1006.2 1006.1 0.8
19/07:00pm 25.8 30.1 23.7 88 1.4 W 7 9 4 5 1005.8 1005.7 0.8
19/06:30pm 26.0 30.4 23.5 86 1.7 W 6 9 3 5 1005.5 1005.4 0.8
19/06:00pm 25.7 29.0 23.2 86 1.7 W 11 15 6 8 1005.2 1005.1 0.8
19/05:30pm 25.4 29.3 22.5 84 2.0 WNW 6 7 3 4 1005.0 1004.9 0.8
19/05:00pm 25.1 29.2 22.2 84 1.9 WNW 4 7 2 4 1004.9 1004.8 0.8
19/04:30pm 24.9 28.2 21.8 83 2.1 WNW 7 13 4 7 1005.1 1005.0 0.8
19/04:00pm 25.1 29.0 22.6 86 1.7 N 6 7 3 4 1005.3 1005.2 0.8
19/03:30pm 25.0 25.9 20.9 78 2.7 WSW 17 22 9 12 1005.5 1005.4 0.8
19/03:09pm 28.5 28.9 21.0 64 5.0 W 20 52 11 28 1006.1 1006.0 0.0
19/03:08pm 29.3 30.2 21.5 63 5.2 W 19 52 10 28 1006.0 1005.9 0.0
19/03:00pm 31.0 34.9 25.4 72 4.0 WNW 15 22 8 12 1005.8 1005.7 0.0
19/02:30pm 31.6 34.1 24.5 66 5.0 NW 19 28 10 15 1005.3 1005.2 0.0
19/02:00pm 32.4 34.1 24.7 64 5.4 NW 24 33 13 18 1005.3 1005.2 0.0
19/01:30pm 33.5 34.3 23.8 57 6.8 WNW 26 35 14 19 1006.1 1006.0 0.0
19/01:00pm 33.3 35.0 24.7 60 6.1 WNW 24 35 13 19 1006.7 1006.6 0.0
19/12:30pm 32.9 34.7 24.9 63 5.7 WNW 24 33 13 18 1007.3 1007.2 0.0
19/12:00pm 32.6 35.5 25.4 66 5.1 W 20 32 11 17 1008.0 1007.9 0.0
19/11:30am 31.9 34.4 24.5 65 5.2 WNW 19 30 10 16 1008.4 1008.3 0.0
19/11:00am 31.8 35.6 25.9 71 4.2 WNW 17 28 9 15 1008.6 1008.5 0.0
19/10:30am 30.2 33.4 25.5 76 3.3 WNW 19 30 10 16 1008.9 1008.8 0.0
19/10:00am 28.3 32.5 25.9 87 1.7 NW 15 22 8 12 1009.0 1008.9 0.0
19/09:30am 26.1 31.2 24.9 93 0.8 NW 7 13 4 7 1009.0 1008.9 0.0
19/09:00am 24.6 28.9 23.7 95 0.6 NNW 7 9 4 5 1008.9 1008.8 5.8
19/08:30am 23.9 28.6 23.4 97 0.3 WNW 4 7 2 4 1008.7 1008.6 5.8
19/08:00am 23.2 27.2 22.7 97 0.3 W 6 7 3 4 1008.4 1008.3 5.8
19/07:30am 22.7 27.6 22.4 98 0.2 CALM 0 0 0 0 1008.2 1008.1 5.8
19/07:00am 22.3 26.6 22.0 98 0.2 NW 2 6 1 3 1008.1 1008.0 5.8
19/06:30am 22.1 25.6 21.9 99 0.1 WNW 6 6 3 3 1008.1 1008.0 5.8
19/06:00am 22.0 25.2 21.7 98 0.2 NW 7 9 4 5 1007.9 1007.8 5.8
19/05:30am 22.1 26.7 21.8 98 0.2 CALM 0 0 0 0 1008.0 1007.9 5.8
19/05:00am 22.0 26.6 21.7 98 0.2 CALM 0 0 0 0 1007.9 1007.8 5.8
19/04:30am 21.9 26.0 21.6 98 0.2 NE 2 7 1 4 1007.7 1007.6 5.8
19/04:00am 21.6 23.9 21.4 99 0.1 SE 11 19 6 10 1008.3 1008.2 5.8
19/03:30am 22.1 20.8 20.6 91 1.0 SE 28 48 15 26 1008.8 1008.7 1.8
19/03:14am 26.0 29.6 23.7 87 1.6 SE 11 54 6 29 1008.5 1008.4 1.0
19/03:00am 26.4 33.0 25.2 93 0.8 CALM 0 0 0 0 1008.0 1007.9 1.0
19/02:30am 26.9 32.5 25.5 92 1.0 WNW 6 7 3 4 1007.9 1007.8 1.0
19/02:00am 26.9 32.3 25.5 92 1.0 W 7 11 4 6 1007.8 1007.7 1.0
19/01:30am 26.9 32.3 25.5 92 1.0 WNW 7 9 4 5 1007.9 1007.8 1.0
19/01:00am 27.0 32.0 25.4 91 1.1 WNW 9 15 5 8 1008.3 1008.2 1.0
19/12:30am 26.9 32.2 25.3 91 1.1 WNW 7 11 4 6 1008.5 1008.4 1.0
19/12:00am 27.1 31.7 25.3 90 1.3 W 11 13 6 7 1008.9 1008.8 1.0
 
Date/Time
CST
Temp
°C
App
Temp
°C
Dew
Point
°C
Rel
Hum
%
Delta-T
°C
Wind Press
QNH
hPa
Press
MSL
hPa
Rain since
9am
mm
Dir  Spd
km/h
Gust
km/h
Spd
kts
Gust
kts
18/11:30pm 27.3 32.2 25.3 89 1.4 W 9 15 5 8 1009.3 1009.2 1.0
18/11:00pm 27.3 32.4 25.5 90 1.3 W 9 13 5 7 1009.2 1009.1 1.0
18/10:30pm 27.4 31.6 25.4 89 1.4 W 13 19 7 10 1009.0 1008.9 1.0
18/10:00pm 27.5 31.8 25.5 89 1.4 WNW 13 17 7 9 1008.7 1008.6 1.0
18/09:30pm 27.5 32.2 25.5 89 1.4 WNW 11 19 6 10 1008.3 1008.2 1.0
18/09:00pm 27.5 32.3 25.7 90 1.3 WNW 11 15 6 8 1007.8 1007.7 1.0
18/08:30pm 27.4 32.4 25.4 89 1.4 WNW 9 13 5 7 1007.6 1007.5 1.0
18/08:00pm 26.9 31.5 25.3 91 1.1 NW 11 15 6 8 1007.0 1006.9 1.0
18/07:30pm 26.9 32.0 24.9 89 1.4 N 7 11 4 6 1006.9 1006.8 1.0
18/07:00pm 27.2 33.0 25.2 89 1.4 ENE 4 7 2 4 1007.2 1007.1 1.0
18/06:30pm 25.7 30.0 23.6 88 1.4 NW 7 9 4 5 1006.9 1006.8 1.0
18/06:00pm 25.8 28.5 22.9 84 2.0 NNW 13 17 7 9 1006.5 1006.4 1.0
18/05:30pm 24.8 27.2 22.9 89 1.3 NNW 15 22 8 12 1006.1 1006.0 1.0
18/05:00pm 26.2 29.9 23.3 84 2.0 WSW 9 26 5 14 1006.9 1006.8 0.6
18/04:42pm 28.9 30.0 23.1 71 4.0 W 22 44 12 24 1006.6 1006.5 0.2
18/04:30pm 32.2 35.0 25.0 65 5.1 WNW 19 26 10 14 1005.6 1005.5 0.2
18/04:00pm 34.5 38.5 25.6 60 6.4 WNW 15 22 8 12 1006.2 1006.1 0.2
18/03:30pm 33.3 37.5 24.7 60 6.1 W 11 22 6 12 1006.4 1006.3 0.2
18/03:00pm 33.7 38.2 24.6 59 6.4 WSW 9 17 5 9 1006.6 1006.5 0.2
18/02:30pm 33.1 36.1 24.0 59 6.4 WNW 15 24 8 13 1006.8 1006.7 0.2
18/02:00pm 32.8 36.1 25.1 64 5.4 NW 17 24 9 13 1007.1 1007.0 0.2
18/01:30pm 33.4 36.5 25.4 63 5.7 WNW 19 26 10 14 1007.5 1007.4 0.2
18/01:00pm 33.3 36.7 25.3 63 5.7 W 17 30 9 16 1007.9 1007.8 0.2
18/12:30pm 33.2 36.9 25.7 64 5.4 W 17 26 9 14 1008.3 1008.2 0.2
18/12:00pm 32.5 35.0 24.8 64 5.4 W 20 28 11 15 1008.7 1008.6 0.2
18/11:30am 32.4 35.1 25.0 65 5.2 W 20 30 11 16 1009.2 1009.1 0.2
18/11:00am 31.2 34.5 25.1 70 4.3 WSW 17 22 9 12 1010.0 1009.9 0.2
18/10:30am 30.8 33.3 24.4 68 4.5 W 19 26 10 14 1010.1 1010.0 0.2
18/10:00am 30.7 34.0 25.1 72 3.9 W 17 24 9 13 1010.3 1010.2 0.0
18/09:30am 29.7 34.1 25.7 79 2.8 W 13 20 7 11 1010.3 1010.2 0.0
18/09:00am 28.8 33.0 25.4 82 2.4 WNW 13 19 7 10 1010.1 1010.0 1.4
18/08:30am 28.0 33.4 25.4 86 1.8 W 7 11 4 6 1010.1 1010.0 1.4
18/08:00am 27.3 33.4 25.1 88 1.5 WNW 2 7 1 4 1010.0 1009.9 1.4
18/07:30am 26.6 32.7 25.0 91 1.1 NNW 2 4 1 2 1009.5 1009.4 1.4
18/07:00am 25.9 31.2 24.9 94 0.7 WNW 6 7 3 4 1009.3 1009.2 1.4
18/06:30am 26.0 30.7 25.0 94 0.7 WNW 9 11 5 6 1008.8 1008.7 1.4
18/06:00am 26.1 31.3 25.1 94 0.7 WNW 7 11 4 6 1008.8 1008.7 1.4
18/05:30am 26.2 31.3 25.0 93 0.8 W 7 13 4 7 1008.7 1008.6 1.4
18/05:00am 26.0 31.3 25.3 96 0.5 WNW 7 9 4 5 1008.6 1008.5 1.4
18/04:30am 25.9 31.3 25.2 96 0.5 WNW 6 7 3 4 1008.5 1008.4 1.4
18/04:00am 25.9 31.5 25.4 97 0.4 NNW 6 7 3 4 1008.5 1008.4 1.4
18/03:30am 25.9 31.7 25.2 96 0.5 NNW 4 6 2 3 1008.6 1008.5 1.4
18/03:00am 26.0 31.5 25.3 96 0.5 NW 6 7 3 4 1008.9 1008.8 1.4
18/02:30am 26.2 32.8 25.3 95 0.6 CALM 0 0 0 0 1009.2 1009.1 1.4
18/02:00am 26.4 33.0 25.2 93 0.8 CALM 0 0 0 0 1009.4 1009.3 1.4
18/01:30am 26.7 32.6 25.3 92 1.0 WSW 4 6 2 3 1009.7 1009.6 1.4
18/01:00am 26.6 32.0 25.2 92 1.0 W 6 7 3 4 1009.8 1009.7 1.4
18/12:30am 26.9 32.7 25.1 90 1.3 W 4 6 2 3 1010.2 1010.1 1.4
18/12:00am 27.0 32.3 25.2 90 1.3 W 7 13 4 7 1010.5 1010.4 1.4
 
Date/Time
CST
Temp
°C
App
Temp
°C
Dew
Point
°C
Rel
Hum
%
Delta-T
°C
Wind Press
QNH
hPa
Press
MSL
hPa
Rain since
9am
mm
Dir  Spd
km/h
Gust
km/h
Spd
kts
Gust
kts
17/11:30pm 27.1 32.3 25.1 89 1.4 W 7 11 4 6 1011.0 1010.8 1.4
17/11:00pm 27.3 31.7 25.1 88 1.5 W 11 17 6 9 1011.0 1010.8 1.4
17/10:30pm 27.4 31.0 25.0 87 1.7 W 15 20 8 11 1010.5 1010.4 1.4
17/10:00pm 27.4 31.8 25.0 87 1.7 W 11 19 6 10 1010.3 1010.2 1.4
17/09:30pm 27.4 31.6 24.8 86 1.8 W 11 17 6 9 1009.7 1009.6 1.4
17/09:00pm 27.6 31.5 24.8 85 2.0 W 13 17 7 9 1009.2 1009.1 1.4
17/08:30pm 27.6 31.8 24.8 85 2.0 W 11 15 6 8 1009.3 1009.2 1.4
17/08:00pm 28.1 32.3 24.7 82 2.4 WNW 11 15 6 8 1009.1 1009.0 1.4
17/07:30pm 28.5 31.7 24.3 78 2.9 WNW 15 22 8 12 1008.6 1008.5 1.4
17/07:00pm 29.3 31.8 24.4 75 3.4 WNW 19 26 10 14 1008.1 1008.0 1.4
17/06:30pm 30.0 31.8 24.9 74 3.6 WNW 24 33 13 18 1007.4 1007.3 1.4
17/06:00pm 31.5 34.6 25.4 70 4.3 WNW 19 28 10 15 1006.9 1006.8 1.4
17/05:30pm 31.3 32.8 24.4 66 4.8 WNW 24 37 13 20 1006.7 1006.6 1.4
17/05:00pm 31.4 35.8 25.7 71 4.1 WNW 13 24 7 13 1006.7 1006.6 1.4
17/04:30pm 29.1 30.6 23.1 70 4.1 WSW 20 30 11 16 1007.3 1007.2 0.0
17/04:00pm 34.3 36.5 24.3 56 7.0 W 20 32 11 17 1007.2 1007.1 0.0
17/03:30pm 34.0 - - - - W 19 26 10 14 1007.6 1007.5 0.0
17/03:00pm 34.7 - - - - W 19 30 10 16 1007.9 1007.8 0.0
17/02:30pm 34.4 - - - - WSW 19 26 10 14 1008.2 1008.1 0.0
17/02:00pm 32.9 - - - - WSW 17 26 9 14 1008.7 1008.6 0.0
17/01:30pm 33.7 - - - - W 19 26 10 14 1009.1 1009.0 0.0
17/01:00pm 33.0 - - - - W 19 24 10 13 1009.4 1009.3 0.0
17/12:30pm 34.0 - - - - W 19 30 10 16 1009.8 1009.7 0.0
17/12:00pm 33.3 - - - - WSW 15 22 8 12 1010.3 1010.2 0.0
17/11:30am 32.2 - - - - W 17 22 9 12 1010.6 1010.5 0.0
17/11:00am 32.1 - - - - W 19 24 10 13 1010.6 1010.5 0.0
17/10:30am 31.6 - - - - W 19 28 10 15 1010.6 1010.5 0.0
17/10:00am 30.9 33.7 25.0 71 4.2 W 19 26 10 14 1010.7 1010.6 0.0
17/09:30am 30.2 32.9 25.0 73 3.7 W 20 33 11 18 1010.6 1010.5 0.0
17/09:00am 29.1 31.9 25.3 80 2.7 W 20 26 11 14 1010.4 1010.3 0.0
17/08:30am 28.1 31.9 25.3 85 2.0 W 15 22 8 12 1010.3 1010.2 0.0
17/08:00am 27.1 31.5 25.7 92 1.0 W 13 20 7 11 1009.9 1009.8 0.0
17/07:30am 25.7 31.1 25.4 98 0.2 NW 7 11 4 6 1009.4 1009.3 0.0
17/07:00am 24.9 29.8 24.6 98 0.2 WNW 7 9 4 5 1009.2 1009.1 0.0
17/06:30am 24.9 29.5 24.7 99 0.1 WNW 9 13 5 7 1008.7 1008.6 0.0
17/06:00am 24.1 28.7 23.8 98 0.2 WNW 6 7 3 4 1008.6 1008.5 0.0
17/05:30am 24.3 30.0 23.8 97 0.3 CALM 0 0 0 0 1008.4 1008.3 0.0
17/05:00am 24.5 30.3 24.0 97 0.3 CALM 0 0 0 0 1008.4 1008.3 0.0
17/04:30am 24.6 29.9 24.3 98 0.2 WNW 4 6 2 3 1008.0 1007.9 0.0
17/04:00am 24.9 30.6 24.4 97 0.3 S 2 4 1 2 1008.1 1008.0 0.0
17/03:30am 25.1 30.9 24.6 97 0.3 WSW 2 6 1 3 1008.4 1008.3 0.0
17/03:00am 25.0 29.6 24.7 98 0.2 NW 9 11 5 6 1008.2 1008.1 0.0
17/02:30am 24.9 30.2 24.4 97 0.3 NW 4 6 2 3 1008.7 1008.6 0.0
17/02:00am 24.9 29.7 24.2 96 0.5 NW 6 7 3 4 1008.9 1008.8 0.0
17/01:30am 25.0 29.8 24.5 97 0.3 NW 7 9 4 5 1009.3 1009.2 0.0
17/01:00am 24.9 29.7 24.4 97 0.3 NW 7 7 4 4 1009.6 1009.5 0.0
17/12:30am 24.9 29.7 24.4 97 0.3 WNW 7 7 4 4 1009.9 1009.8 0.0
17/12:00am 25.1 29.9 24.2 95 0.6 WNW 6 6 3 3 1010.2 1010.1 0.0
 
Date/Time
CST
Temp
°C
App
Temp
°C
Dew
Point
°C
Rel
Hum
%
Delta-T
°C
Wind Press
QNH
hPa
Press
MSL
hPa
Rain since
9am
mm
Dir  Spd
km/h
Gust
km/h
Spd
kts
Gust
kts
16/11:30pm 25.4 30.8 24.5 95 0.6 WNW 4 6 2 3 1010.2 1010.1 0.0
16/11:00pm 25.4 30.3 24.4 94 0.7 WNW 6 7 3 4 1010.2 1010.1 0.0
16/10:30pm 25.5 30.2 24.3 93 0.8 WNW 7 9 4 5 1010.0 1009.9 0.0
16/10:00pm 25.6 30.1 24.0 91 1.1 WNW 7 9 4 5 1009.8 1009.7 0.0
16/09:30pm - - - - - W 7 7 4 4 1010.0 1009.9 0.0

Other Formats:

Comma delimited format used in spreadsheet applications
http://www.bom.gov.au/fwo/IDD60801/IDD60801.95121.axf

JavaScript Object Notation format (JSON) in row-major order
http://www.bom.gov.au/fwo/IDD60801/IDD60801.95121.json